Flight Track Log - Related Links

Times and Time Zones

All times are in EDT time to prevent confusion due to time zone crossing. See the N1767P flight status page for this flight to view local times or setup timezone preferences in your user account.

Time Position Orientation Groundspeed Altitude Reporting Facility
EDT Latitude Longitude Course Direction KTS MPH feet Rate Location/Type
Sun 12:56:47 PM 46.7667 -71.3833 186° South 100 115 400  Level Montreal Center
Sun 12:57:47 PM 46.7500 -71.4167 234° Southwest 120 138 1,400 1,000 Climbing Montreal Center
Sun 12:58:47 PM 46.7167 -71.4333 199° South 120 138 2,400 900 Climbing Montreal Center
Sun 12:59:47 PM 46.6833 -71.4333 180° South 130 150 3,200 850 Climbing Montreal Center
Sun 01:00:47 PM 46.6500 -71.4500 199° South 130 150 4,100 850 Climbing Montreal Center
Sun 01:01:00 PM 46.5239 -71.4167 180° South  Level FlightAware Approximate
Sun 01:01:47 PM 46.6167 -71.4500 180° South 140 161 4,900  Level Montreal Center
Sun 01:02:00 PM 46.4805 -71.4171 186° South  Level FlightAware Approximate
Sun 01:02:47 PM 46.5667 -71.4333 167° South 140 161 5,800  Level Montreal Center
Sun 01:03:47 PM 46.5333 -71.4333 180° South 150 173 6,500 800 Climbing Montreal Center
Sun 01:04:47 PM 46.4833 -71.4333 180° South 150 173 7,400 750 Climbing Montreal Center
Sun 01:05:47 PM 46.4500 -71.4333 180° South 150 173 8,000 300 Climbing Montreal Center
Sun 01:06:47 PM 46.4000 -71.4500 193° South 160 184 8,000  Level Montreal Center
Sun 01:07:47 PM 46.3667 -71.4500 180° South 160 184 8,000  Level Montreal Center
Sun 01:08:47 PM 46.3167 -71.4333 167° South 160 184 8,000  Level Montreal Center
Sun 01:09:47 PM 46.2667 -71.4333 180° South 160 184 8,000  Level Montreal Center
Sun 01:10:47 PM 46.2333 -71.4333 180° South 160 184 8,000  Level Montreal Center
Sun 01:11:47 PM 46.1833 -71.4333 180° South 160 184 8,000  Level Montreal Center
Sun 01:12:47 PM 46.1333 -71.4333 180° South 160 184 8,000  Level Montreal Center
Sun 01:13:47 PM 46.0833 -71.4500 193° South 160 184 8,000  Level Montreal Center
Sun 01:14:47 PM 46.0500 -71.4500 180° South 160 184 8,000  Level Montreal Center
Sun 01:15:47 PM 46.0000 -71.4500 180° South 160 184 8,000  Level Montreal Center
Sun 01:16:47 PM 45.9500 -71.4500 180° South 160 184 8,000  Level Montreal Center
Sun 01:17:47 PM 45.9167 -71.4667 199° South 160 184 8,000  Level Montreal Center
Sun 01:18:47 PM 45.8667 -71.4667 180° South 160 184 8,000  Level Montreal Center
Sun 01:19:47 PM 45.8167 -71.4667 180° South 160 184 8,000 50 Level Montreal Center
Sun 01:20:47 PM 45.7667 -71.4667 180° South 160 184 8,100 50 Climbing Montreal Center
Sun 01:21:47 PM 45.7333 -71.4833 199° South 160 184 8,100  Level Montreal Center
Sun 01:22:47 PM 45.7000 -71.5000 199° South 150 173 8,100  Level Montreal Center
Sun 01:23:47 PM 45.6500 -71.5333 205° Southwest 160 184 8,100  Level Montreal Center
Sun 01:24:47 PM 45.6167 -71.5500 199° South 160 184 8,100  Level Montreal Center
Sun 01:25:47 PM 45.5667 -71.5833 205° Southwest 150 173 8,100  Level Montreal Center
Sun 01:26:47 PM 45.5333 -71.6167 215° Southwest 150 173 8,100  Level Montreal Center
Sun 01:27:47 PM 45.4833 -71.6333 193° South 160 184 8,100  Level Montreal Center
Sun 01:28:47 PM 45.4500 -71.6667 215° Southwest 160 184 8,100  Level Montreal Center
Sun 01:29:47 PM 45.4167 -71.7000 215° Southwest 160 184 8,100  Level Montreal Center
Sun 01:30:47 PM 45.3667 -71.7167 193° South 160 184 8,100  Level Montreal Center
Sun 01:31:47 PM 45.3333 -71.7500 215° Southwest 150 173 8,100  Level Montreal Center
Sun 01:32:47 PM 45.3000 -71.7833 215° Southwest 150 173 8,100  Level Montreal Center
Sun 01:33:47 PM 45.2667 -71.8000 199° South 160 184 8,100  Level Montreal Center
Sun 01:34:47 PM 45.2333 -71.8333 215° Southwest 150 173 8,100 -35 Level Montreal Center
Sun 01:36:39 PM 45.1661 -71.8925 212° Southwest 170 196 8,000 -35 Descending Boston Center
Sun 01:37:39 PM 45.1289 -71.9222 209° Southwest 165 190 8,000  Level Boston Center
Sun 01:38:40 PM 45.0894 -71.9461 203° Southwest 165 190 8,000  Level Boston Center
Sun 01:39:40 PM 45.0519 -71.9731 207° Southwest 160 184 8,000  Level Boston Center
Sun 01:40:38 PM 45.0125 -72.0028 208° Southwest 160 184 8,000  Level Boston Center
Sun 01:41:39 PM 44.9731 -72.0294 206° Southwest 160 184 8,000  Level Boston Center
Sun 01:42:39 PM 44.9336 -72.0561 206° Southwest 160 184 8,000  Level Boston Center
Sun 01:43:40 PM 44.8942 -72.0828 206° Southwest 155 178 8,000  Level Boston Center
Sun 01:44:40 PM 44.8547 -72.1092 205° Southwest 155 178 8,000  Level Boston Center
Sun 01:45:38 PM 44.8172 -72.1358 207° Southwest 155 178 8,000  Level Boston Center
Sun 01:46:39 PM 44.7778 -72.1653 208° Southwest 155 178 8,000  Level Boston Center
Sun 01:47:39 PM 44.7381 -72.1889 203° Southwest 155 178 8,000  Level Boston Center
Sun 01:48:40 PM 44.6986 -72.2153 205° Southwest 155 178 8,000  Level Boston Center
Sun 01:49:40 PM 44.6592 -72.2444 208° Southwest 155 178 8,000  Level Boston Center
Sun 01:50:37 PM 44.6194 -72.2708 205° Southwest 155 178 8,000  Level Boston Center
Sun 01:51:38 PM 44.5800 -72.2972 205° Southwest 155 178 8,000  Level Boston Center
Sun 01:52:39 PM 44.5425 -72.3264 209° Southwest 155 178 8,000  Level Boston Center
Sun 01:53:39 PM 44.5031 -72.3497 203° Southwest 155 178 8,000  Level Boston Center
Sun 01:54:40 PM 44.4633 -72.3761 205° Southwest 161 185 8,000  Level Boston Center
Sun 01:55:40 PM 44.4281 -72.4022 208° Southwest 161 185 8,000  Level Boston Center
Sun 01:56:38 PM 44.3842 -72.4314 205° Southwest 161 185 8,000  Level Boston Center
Sun 01:57:38 PM 44.3447 -72.4575 205° Southwest 156 180 8,000  Level Boston Center
Sun 01:58:38 PM 44.3050 -72.4836 205° Southwest 156 180 8,000  Level Boston Center
Sun 01:59:39 PM 44.2675 -72.5097 207° Southwest 156 180 8,000  Level Boston Center
Sun 02:00:40 PM 44.2281 -72.5356 205° Southwest 156 180 8,000  Level Boston Center
Sun 02:01:40 PM 44.1842 -72.5675 208° Southwest 156 180 8,000  Level Boston Center
Sun 02:02:37 PM 44.1467 -72.5933 206° Southwest 156 180 8,000  Level Boston Center
Sun 02:03:38 PM 44.1069 -72.6164 203° Southwest 156 180 8,000 -49 Level Boston Center
Sun 02:04:39 PM 44.0653 -72.6453 206° Southwest 156 180 7,900 -49 Descending Boston Center
Sun 02:05:40 PM 44.0278 -72.6711 206° Southwest 156 180 7,900  Level Boston Center
Sun 02:06:38 PM 43.9881 -72.6969 205° Southwest 156 180 7,900  Level Boston Center
Sun 02:07:38 PM 43.9483 -72.7256 207° Southwest 156 180 7,900  Level Boston Center
Sun 02:08:38 PM 43.9108 -72.7514 206° Southwest 156 180 7,900  Level Boston Center
Sun 02:09:40 PM 43.8711 -72.7742 202° Southwest 156 180 7,900  Level Boston Center
Sun 02:10:40 PM 43.8336 -72.8028 209° Southwest 156 180 7,900  Level Boston Center
Sun 02:11:40 PM 43.7919 -72.8283 204° Southwest 156 180 7,900  Level Boston Center
Sun 02:12:38 PM 43.7500 -72.8539 204° Southwest 156 180 7,900  Level Boston Center
Sun 02:13:38 PM 43.7144 -72.8794 207° Southwest 156 180 7,900  Level Boston Center
Sun 02:14:39 PM 43.6750 -72.9050 205° Southwest 156 180 7,900  Level Boston Center
Sun 02:15:37 PM 43.6394 -72.9306 207° Southwest 156 180 7,900  Level Boston Center
Sun 02:16:38 PM 43.5997 -72.9561 205° Southwest 156 180 7,900  Level Boston Center
Sun 02:17:38 PM 43.5600 -72.9817 205° Southwest 156 180 7,900  Level Boston Center
Sun 02:18:39 PM 43.5161 -73.0097 205° Southwest 156 180 7,900  Level Boston Center
Sun 02:19:39 PM 43.4825 -73.0408 214° Southwest 150 173 7,900  Level Boston Center
Sun 02:20:40 PM 43.4719 -73.0925 254° West 137 158 7,900  Level Boston Center
Sun 02:21:40 PM 43.4569 -73.1436 248° West 142 163 7,900  Level Boston Center
Sun 02:22:48 PM 43.4419 -73.1978 249° West 146 168 7,900  Level Boston Center
Sun 02:23:30 PM 43.4333 -73.2406 255° West 148 170 7,900  Level Boston Center
Sun 02:24:40 PM 43.4183 -73.3033 252° West 150 173 7,900 52 Level Boston Center
Sun 02:25:25 PM 43.4056 -73.3375 243° Southwest 141 162 8,000 57 Climbing Boston Center
Sun 02:26:25 PM 43.3658 -73.3625 205° Southwest 156 180 8,000  Level Boston Center
Sun 02:27:29 PM 43.3281 -73.3906 208° Southwest 154 177 8,000 -97 Level Boston Center
Sun 02:28:29 PM 43.2903 -73.4183 208° Southwest 157 181 7,800 -417 Descending Boston Center
Sun 02:29:24 PM 43.2525 -73.4464 208° Southwest 171 197 7,200 -687 Descending Boston Center
Sun 02:30:40 PM 43.1958 -73.4853 207° Southwest 172 198 6,300 -672 Descending Boston Center
Sun 02:31:38 PM 43.1561 -73.5131 207° Southwest 179 206 5,700 -655 Descending Boston Center
Sun 02:32:39 PM 43.1119 -73.5464 209° Southwest 174 200 5,000 -730 Descending Boston Center
Sun 02:33:33 PM 43.0683 -73.5456 179° South 184 212 4,300 -556 Descending Boston Center
Sun 02:34:27 PM 43.0244 -73.5478 182° South 170 196 4,000 -157 Descending Boston Center
Sun 02:35:28 PM 42.9828 -73.5525 185° South 151 174 4,000  Level Boston Center
Sun 02:36:28 PM 42.9411 -73.5519 179° South 146 168 4,000 -189 Level Boston Center
Sun 02:37:35 PM 42.8931 -73.5622 189° South 160 184 3,600 -425 Descending Boston Center
Sun 02:38:35 PM 42.8492 -73.5786 195° South 161 185 3,100 -295 Descending Boston Center
Sun 02:39:37 PM 42.8072 -73.5975 198° South 159 183 3,000 -47 Descending Boston Center
Sun 02:40:43 PM 42.7653 -73.6222 203° Southwest 139 160 3,000  Level Boston Center
Sun 02:41:38 PM 42.7336 -73.6472 210° Southwest 145 167 3,000 -207 Level Boston Center
Sun 02:42:39 PM 42.7103 -73.6947 236° Southwest 156 180 2,600 -545 Descending Boston Center
Sun 02:43:39 PM 42.7056 -73.7511 264° West 133 153 1,900 -700 Descending Boston Center
Sun 02:44:39 PM 42.7092 -73.7906 277° West 107 123 1,200 -700 Descending Boston Center
Sun 02:46:00 PM 42.7491 -73.8020 344° North  Level Estimated

Login

Don't have an account? Register now (free) for customized features, flight alerts, and more!